KCOS/COS METAR and TAF weather

Enter ICAO airport designator
Station Type Date Time Source
KCOS METAR 2019/08/21 01:54 UTC NOAA

KCOS 210154Z 03012KT 10SM TS FEW080CB BKN130 BKN250 28/03 A3016 RMK AO2 LTG DSNT W-N TSB31 SLP101 FRQ LTGICCG N TS N MOV E VIRGA ALQDS T02830033


Station Type Date Time Source
KCOS Decoded METAR 2019/08/21 01:54 UTC NOAA

Station name not available
Aug 20, 2019 - 09:54 PM EDT / 2019.08.21 0154 UTC
Wind: from the NNE (030 degrees) at 14 MPH (12 KT):0
Visibility: 10 mile(s):0
Sky conditions: mostly cloudy
Weather: thunder; Cumulonimbus clouds, lightning observed
Temperature: 82.9 F (28.3 C)
Dew Point: 37.9 F (3.3 C)
Relative Humidity: 20%
Pressure (altimeter): 30.16 in. Hg (1021 hPa)
ob: KCOS 210154Z 03012KT 10SM TS FEW080CB BKN130 BKN250 28/03 A3016 RMK AO2 LTG DSNT W-N TSB31 SLP101 FRQ LTGICCG N TS N MOV E VIRGA ALQDS T02830033
cycle: 2

Station Type Date Time Source
KCOS TAF 2019/08/21 02:42 UTC NOAA

TAF
AMD KCOS 210140Z 2102/2124 06012KT P6SM VCTS FEW080CB BKN140
FM210400 01012KT P6SM BKN100
FM211000 36006KT P6SM SCT100 SCT200
FM211600 11007KT P6SM SCT150
FM212000 12012KT P6SM VCTS BKN080CB BKN200

Example: see airport list